createdAt,value
2022-10-12T00:02:25.086Z,100501.47
2022-10-12T00:04:52.063Z,100498.53
2022-10-12T00:07:19.123Z,100503.47
2022-10-12T00:09:46.087Z,100493.13
2022-10-12T00:12:13.031Z,100496.19
2022-10-12T00:14:40.313Z,100493.06
2022-10-12T00:17:07.442Z,100488.91
2022-10-12T00:19:34.455Z,100489.94
2022-10-12T00:22:01.503Z,100490.31
2022-10-12T00:24:28.417Z,100496.91
2022-10-12T00:26:55.351Z,100498.53
2022-10-12T00:29:22.295Z,100504.09
2022-10-12T00:31:49.317Z,100498.91
2022-10-12T00:34:16.238Z,100499.13
2022-10-12T00:36:43.421Z,100492.94
2022-10-12T00:39:10.984Z,100492.09
2022-10-12T00:41:42.823Z,100496.44
2022-10-12T00:44:37.590Z,100499.50
2022-10-12T00:47:15.051Z,100502.81
2022-10-12T00:49:43.007Z,100493.75
2022-10-12T00:52:15.544Z,100503.44
2022-10-12T00:54:47.022Z,100499.13
2022-10-12T00:57:17.362Z,100503.84
2022-10-12T00:59:52.105Z,100502.34
2022-10-12T01:02:19.830Z,100495.34
2022-10-12T01:04:46.905Z,100499.88
2022-10-12T01:07:14.471Z,100499.25
2022-10-12T01:09:42.007Z,100500.28
2022-10-12T01:12:12.543Z,100503.16
2022-10-12T01:14:39.513Z,100507.84
2022-10-12T01:17:37.320Z,100502.88
2022-10-12T01:20:44.322Z,100503.06
2022-10-12T01:23:43.668Z,100505.09
2022-10-12T01:27:08.389Z,100507.13
2022-10-12T01:30:08.998Z,100501.31
2022-10-12T01:33:00.232Z,100505.22
2022-10-12T01:36:06.669Z,100499.03
2022-10-12T01:38:55.352Z,100499.22
2022-10-12T01:41:34.412Z,100502.94
2022-10-12T01:44:01.397Z,100495.72
2022-10-12T01:46:28.220Z,100492.38
2022-10-12T01:49:01.203Z,100494.44
2022-10-12T01:52:09.715Z,100495.66
2022-10-12T01:54:51.494Z,100493.13
2022-10-12T01:57:53.487Z,100485.50
2022-10-12T02:00:20.854Z,100488.38
2022-10-12T02:03:19.915Z,100477.59
2022-10-12T02:06:00.690Z,100477.94
2022-10-12T02:08:56.630Z,100474.16
2022-10-12T02:11:26.489Z,100476.22
2022-10-12T02:14:01.473Z,100475.75
2022-10-12T02:16:36.038Z,100478.59
2022-10-12T02:19:06.111Z,100478.59
2022-10-12T02:21:34.790Z,100476.13
2022-10-12T02:24:06.067Z,100472.00
2022-10-12T02:26:37.640Z,100472.00
2022-10-12T02:29:10.681Z,100474.03
2022-10-12T02:31:55.848Z,100467.00
2022-10-12T02:34:33.032Z,100471.50
2022-10-12T02:37:22.125Z,100471.72
2022-10-12T02:39:54.311Z,100469.88
2022-10-12T02:42:41.760Z,100470.06
2022-10-12T02:45:21.651Z,100473.56
2022-10-12T02:47:52.803Z,100465.72
2022-10-12T02:50:22.487Z,100474.59
2022-10-12T02:52:51.290Z,100466.75
2022-10-12T02:55:18.240Z,100463.41
2022-10-12T02:57:45.222Z,100465.25
2022-10-12T03:00:12.977Z,100465.25
2022-10-12T03:02:39.943Z,100461.75
2022-10-12T03:05:07.429Z,100455.75
2022-10-12T03:07:34.371Z,100461.13
2022-10-12T03:10:01.329Z,100457.63
2022-10-12T03:12:28.253Z,100454.28
2022-10-12T03:14:55.183Z,100459.97
2022-10-12T03:17:22.147Z,100460.16
2022-10-12T03:19:49.091Z,100455.84
2022-10-12T03:22:16.057Z,100456.84
2022-10-12T03:24:42.962Z,100460.53
2022-10-12T03:27:09.913Z,100453.53
2022-10-12T03:29:36.910Z,100452.69
2022-10-12T03:32:04.107Z,100448.38
2022-10-12T03:34:31.132Z,100446.50
2022-10-12T03:36:58.142Z,100447.53
2022-10-12T03:39:25.105Z,100446.72
2022-10-12T03:41:52.048Z,100443.38
2022-10-12T03:44:18.991Z,100448.91
2022-10-12T03:46:45.996Z,100450.13
2022-10-12T03:49:12.921Z,100455.00
2022-10-12T03:51:39.849Z,100455.38
2022-10-12T03:54:06.982Z,100459.44
2022-10-12T03:56:34.256Z,100462.50
2022-10-12T03:59:01.472Z,100456.84
2022-10-12T04:01:28.588Z,100457.41
2022-10-12T04:03:55.546Z,100459.00
2022-10-12T04:06:22.472Z,100458.69
2022-10-12T04:08:51.000Z,100457.41
2022-10-12T04:11:20.195Z,100466.81
2022-10-12T04:13:47.393Z,100464.69
2022-10-12T04:16:14.344Z,100462.34
2022-10-12T04:18:41.300Z,100462.09
2022-10-12T04:21:15.068Z,100466.97
2022-10-12T04:23:43.156Z,100464.81
2022-10-12T04:26:10.227Z,100465.38
2022-10-12T04:28:37.403Z,100473.09
2022-10-12T04:31:04.416Z,100470.13
2022-10-12T04:33:31.374Z,100482.22
2022-10-12T04:35:58.343Z,100481.06
2022-10-12T04:38:25.367Z,100486.94
2022-10-12T04:40:52.500Z,100487.31
2022-10-12T04:43:19.486Z,100487.66
2022-10-12T04:45:55.794Z,100498.72
2022-10-12T04:48:24.052Z,100488.03
2022-10-12T04:50:51.151Z,100490.03
2022-10-12T04:53:18.308Z,100493.72
2022-10-12T04:55:45.258Z,100488.38
2022-10-12T04:58:12.379Z,100482.19
2022-10-12T05:00:39.626Z,100483.03
2022-10-12T05:03:06.690Z,100478.50
2022-10-12T05:05:34.486Z,100483.84
2022-10-12T05:08:02.285Z,100476.66
2022-10-12T05:10:29.346Z,100479.34
2022-10-12T05:12:56.381Z,100471.50
2022-10-12T05:15:23.416Z,100471.50
2022-10-12T05:17:50.423Z,100472.72
2022-10-12T05:20:17.481Z,100472.91
2022-10-12T05:22:44.583Z,100468.53
2022-10-12T05:25:11.545Z,100471.59
2022-10-12T05:27:39.143Z,100478.75
2022-10-12T05:30:07.789Z,100472.78
2022-10-12T05:32:34.768Z,100477.25
2022-10-12T05:35:01.762Z,100479.28
2022-10-12T05:37:28.953Z,100467.13
2022-10-12T05:39:55.937Z,100472.47
2022-10-12T05:42:22.919Z,100481.50
2022-10-12T05:44:49.864Z,100471.84
2022-10-12T05:47:16.818Z,100479.84
2022-10-12T05:49:43.804Z,100483.50
2022-10-12T05:52:10.991Z,100492.50
2022-10-12T05:54:37.992Z,100490.84
2022-10-12T05:57:05.015Z,100499.88
2022-10-12T05:59:31.970Z,100494.72
2022-10-12T06:01:59.030Z,100494.88
2022-10-12T06:04:26.218Z,100501.06
2022-10-12T06:06:53.152Z,100507.25
2022-10-12T06:09:20.194Z,100505.56
2022-10-12T06:11:47.338Z,100505.56
2022-10-12T06:14:15.146Z,100496.56
2022-10-12T06:16:42.233Z,100498.22
2022-10-12T06:19:11.854Z,100495.38
2022-10-12T06:21:38.917Z,100492.50
2022-10-12T06:24:06.267Z,100492.50
2022-10-12T06:26:33.569Z,100496.19
2022-10-12T06:29:00.850Z,100492.69
2022-10-12T06:31:29.143Z,100492.69
2022-10-12T06:33:56.280Z,100491.88
2022-10-12T06:36:23.844Z,100499.88
2022-10-12T06:38:50.951Z,100498.88
2022-10-12T06:41:17.931Z,100508.53
2022-10-12T06:43:45.121Z,100498.69
2022-10-12T06:46:12.061Z,100495.00
2022-10-12T06:48:39.130Z,100496.50
2022-10-12T06:51:06.194Z,100493.66
2022-10-12T06:53:34.894Z,100497.97
2022-10-12T06:56:12.200Z,100499.47
2022-10-12T06:58:39.555Z,100501.78
2022-10-12T07:01:08.885Z,100499.75
2022-10-12T07:03:36.115Z,100508.44
2022-10-12T07:06:12.137Z,100506.41
2022-10-12T07:08:41.212Z,100507.91
2022-10-12T07:11:11.745Z,100508.56
2022-10-12T07:13:39.254Z,100500.38
2022-10-12T07:16:07.136Z,100501.66
2022-10-12T07:18:34.590Z,100497.81
2022-10-12T07:21:02.795Z,100501.78
2022-10-12T07:23:32.039Z,100497.09
2022-10-12T07:25:59.752Z,100493.72
2022-10-12T07:28:27.586Z,100503.69
2022-10-12T07:30:54.607Z,100504.16
2022-10-12T07:33:21.598Z,100497.44
2022-10-12T07:36:20.521Z,100497.06
2022-10-12T07:38:47.101Z,100495.72
2022-10-12T07:41:15.266Z,100501.69
2022-10-12T07:43:43.180Z,100502.19
2022-10-12T07:46:10.870Z,100497.47
2022-10-12T07:48:37.972Z,100501.63
2022-10-12T07:51:08.192Z,100502.94
2022-10-12T07:53:37.121Z,100505.91
2022-10-12T07:56:15.407Z,100505.19
2022-10-12T07:58:48.180Z,100498.09
2022-10-12T08:01:15.311Z,100503.34
2022-10-12T08:03:42.291Z,100500.97
2022-10-12T08:06:16.656Z,100503.88
2022-10-12T08:08:44.451Z,100506.03
2022-10-12T08:11:12.881Z,100499.47
2022-10-12T08:13:41.196Z,100501.59
2022-10-12T08:16:13.606Z,100507.41
2022-10-12T08:18:41.187Z,100504.16
2022-10-12T08:21:09.779Z,100509.66
2022-10-12T08:23:37.709Z,100508.06
2022-10-12T08:26:06.080Z,100501.16
2022-10-12T08:28:35.555Z,100507.41
2022-10-12T08:31:08.140Z,100513.69
2022-10-12T08:33:35.190Z,100511.91
2022-10-12T08:36:04.964Z,100513.84
2022-10-12T08:38:32.357Z,100512.28
2022-10-12T08:41:20.316Z,100516.88
2022-10-12T08:44:09.143Z,100514.47
2022-10-12T08:46:36.178Z,100516.19
2022-10-12T08:49:22.486Z,100516.47
2022-10-12T08:51:53.504Z,100516.72
2022-10-12T08:54:25.993Z,100516.97
2022-10-12T08:56:57.815Z,100517.44
2022-10-12T08:59:33.905Z,100513.34
2022-10-12T09:02:45.860Z,100519.16
2022-10-12T09:05:22.963Z,100515.88
2022-10-12T09:08:14.555Z,100517.38
2022-10-12T09:10:49.622Z,100515.94
2022-10-12T09:13:52.762Z,100523.22
2022-10-12T09:16:34.671Z,100521.84
2022-10-12T09:19:13.229Z,100523.75
2022-10-12T09:21:42.197Z,100523.81
2022-10-12T09:24:28.984Z,100525.91
2022-10-12T09:27:18.206Z,100526.81
2022-10-12T09:29:55.228Z,100518.63
2022-10-12T09:32:52.587Z,100520.34
2022-10-12T09:35:19.614Z,100522.03
2022-10-12T09:37:52.185Z,100523.56
2022-10-12T09:40:35.302Z,100520.09
2022-10-12T09:43:04.241Z,100518.09
2022-10-12T09:45:34.981Z,100516.06
2022-10-12T09:48:16.370Z,100514.25
2022-10-12T09:51:03.718Z,100523.16
2022-10-12T09:54:03.103Z,100514.94
2022-10-12T09:56:44.265Z,100508.59
2022-10-12T09:59:29.138Z,100508.41
2022-10-12T10:02:11.740Z,100513.81
2022-10-12T10:04:40.490Z,100511.97
2022-10-12T10:07:27.888Z,100509.13
2022-10-12T10:10:13.249Z,100512.66
2022-10-12T10:13:01.591Z,100506.72
2022-10-12T10:15:40.792Z,100516.44
2022-10-12T10:18:33.544Z,100523.69
2022-10-12T10:21:02.756Z,100523.91
2022-10-12T10:23:36.219Z,100523.28
2022-10-12T10:26:10.865Z,100513.59
2022-10-12T10:28:43.375Z,100515.66
2022-10-12T10:31:13.596Z,100513.38
2022-10-12T10:33:41.674Z,100519.81
2022-10-12T10:36:28.372Z,100521.47
2022-10-12T10:39:15.437Z,100514.66
2022-10-12T10:41:43.263Z,100513.00
2022-10-12T10:44:32.484Z,100521.09
2022-10-12T10:47:12.311Z,100518.56
2022-10-12T10:49:49.610Z,100522.53
2022-10-12T10:52:25.595Z,100514.44
2022-10-12T10:55:11.044Z,100504.94
2022-10-12T10:58:23.030Z,100507.63
2022-10-12T11:00:53.071Z,100505.09
2022-10-12T11:03:48.302Z,100502.63
2022-10-12T11:06:51.813Z,100493.31
2022-10-12T11:09:30.009Z,100497.44
2022-10-12T11:12:07.954Z,100496.81
2022-10-12T11:14:45.139Z,100494.06
2022-10-12T11:17:43.887Z,100486.94
2022-10-12T11:20:56.560Z,100481.69
2022-10-12T11:23:45.723Z,100484.09
2022-10-12T11:26:44.771Z,100476.75
2022-10-12T11:29:15.097Z,100470.84
2022-10-12T11:32:07.936Z,100470.16
2022-10-12T11:34:58.923Z,100463.59
2022-10-12T11:37:39.798Z,100470.91
2022-10-12T11:40:31.094Z,100453.75
2022-10-12T11:43:13.226Z,100453.63
2022-10-12T11:45:47.143Z,100457.00
2022-10-12T11:48:41.464Z,100442.94
2022-10-12T11:51:09.967Z,100449.25
2022-10-12T11:54:04.056Z,100443.22
2022-10-12T11:56:52.932Z,100448.44
2022-10-12T11:59:23.814Z,100440.63
2022-10-12T12:02:31.207Z,100435.00
2022-10-12T12:04:59.042Z,100436.91
2022-10-12T12:07:54.393Z,100439.53
2022-10-12T12:10:37.115Z,100435.31
2022-10-12T12:13:19.244Z,100423.25
2022-10-12T12:15:52.296Z,100430.94
2022-10-12T12:18:25.773Z,100430.44
2022-10-12T12:21:09.544Z,100431.41
2022-10-12T12:23:55.294Z,100416.47
2022-10-12T12:26:31.550Z,100415.66
2022-10-12T12:29:26.183Z,100404.34
2022-10-12T12:31:59.097Z,100403.09
2022-10-12T12:34:27.451Z,100402.47
2022-10-12T12:36:58.386Z,100391.19
2022-10-12T12:39:33.505Z,100393.59
2022-10-12T12:42:25.683Z,100398.06
2022-10-12T12:44:52.875Z,100395.13
2022-10-12T12:47:46.616Z,100391.38
2022-10-12T12:50:39.644Z,100385.59
2022-10-12T12:53:17.004Z,100387.34
2022-10-12T12:56:05.136Z,100382.44
2022-10-12T12:59:46.554Z,100380.88
2022-10-12T13:02:40.682Z,100383.72
2022-10-12T13:05:49.310Z,100373.00
2022-10-12T13:09:04.947Z,100373.63
2022-10-12T13:12:17.743Z,100369.84
2022-10-12T13:15:24.895Z,100371.25
2022-10-12T13:18:45.914Z,100362.19
2022-10-12T13:21:22.363Z,100369.97
2022-10-12T13:23:56.370Z,100364.75
2022-10-12T13:26:27.346Z,100362.66
2022-10-12T13:28:55.614Z,100372.28
2022-10-12T13:31:41.697Z,100373.50
2022-10-12T13:34:36.504Z,100371.84
2022-10-12T13:37:12.810Z,100376.06
2022-10-12T13:39:46.944Z,100368.19
2022-10-12T13:42:19.706Z,100370.16
2022-10-12T13:44:48.377Z,100367.25
2022-10-12T13:47:43.126Z,100367.59
2022-10-12T13:50:19.291Z,100361.25
2022-10-12T13:52:54.295Z,100364.53
2022-10-12T13:55:31.171Z,100367.00
2022-10-12T13:57:58.172Z,100356.75
2022-10-12T14:00:26.290Z,100365.84
2022-10-12T14:03:00.097Z,100365.94
2022-10-12T14:05:30.873Z,100365.47
2022-10-12T14:08:06.995Z,100367.09
2022-10-12T14:10:38.427Z,100365.94
2022-10-12T14:13:07.161Z,100360.53
2022-10-12T14:15:41.083Z,100362.63
2022-10-12T14:18:43.941Z,100361.47
2022-10-12T14:21:28.064Z,100358.16
2022-10-12T14:24:06.833Z,100356.41
2022-10-12T14:26:41.348Z,100350.06
2022-10-12T14:29:35.702Z,100348.88
2022-10-12T14:32:29.422Z,100348.53
2022-10-12T14:35:22.501Z,100352.19
2022-10-12T14:37:51.708Z,100346.91
2022-10-12T14:40:38.498Z,100346.53
2022-10-12T14:43:08.083Z,100351.56
2022-10-12T14:45:35.849Z,100352.59
2022-10-12T14:48:04.918Z,100347.19
2022-10-12T14:50:33.255Z,100354.47
2022-10-12T14:53:09.453Z,100342.50
2022-10-12T14:55:36.423Z,100341.88
2022-10-12T14:58:08.031Z,100338.38
2022-10-12T15:00:37.512Z,100341.56
2022-10-12T15:03:05.348Z,100344.50
2022-10-12T15:05:33.741Z,100338.72
2022-10-12T15:08:04.294Z,100343.53
2022-10-12T15:10:31.284Z,100341.28
2022-10-12T15:12:58.249Z,100346.34
2022-10-12T15:15:46.960Z,100343.03
2022-10-12T15:18:14.072Z,100337.88
2022-10-12T15:20:45.395Z,100331.28
2022-10-12T15:23:15.383Z,100334.44
2022-10-12T15:25:52.276Z,100335.16
2022-10-12T15:28:20.208Z,100329.38
2022-10-12T15:31:15.486Z,100320.91
2022-10-12T15:33:34.398Z,100317.03
2022-10-12T15:36:01.617Z,100321.47
2022-10-12T15:38:28.614Z,100324.41
2022-10-12T15:40:58.067Z,100329.22
2022-10-12T15:43:25.882Z,100334.03
2022-10-12T15:45:53.165Z,100331.81
2022-10-12T15:48:20.263Z,100323.91
2022-10-12T15:50:49.397Z,100322.50
2022-10-12T15:53:24.382Z,100320.25
2022-10-12T15:55:54.216Z,100311.78
2022-10-12T15:58:21.961Z,100319.53
2022-10-12T16:00:49.508Z,100321.63
2022-10-12T16:03:24.531Z,100314.22
2022-10-12T16:05:53.517Z,100317.59
2022-10-12T16:08:20.674Z,100320.75
2022-10-12T16:10:48.254Z,100317.09
2022-10-12T16:13:15.883Z,100310.72
2022-10-12T16:15:43.656Z,100310.78
2022-10-12T16:18:12.044Z,100312.53
2022-10-12T16:20:41.267Z,100305.78
2022-10-12T16:23:16.871Z,100302.56
2022-10-12T16:25:43.908Z,100298.06
2022-10-12T16:28:12.293Z,100298.97
2022-10-12T16:30:41.208Z,100301.97
2022-10-12T16:33:08.331Z,100303.69
2022-10-12T16:35:35.334Z,100305.44
2022-10-12T16:38:02.356Z,100304.47
2022-10-12T16:40:29.377Z,100300.78
2022-10-12T16:42:57.352Z,100308.94
2022-10-12T16:45:25.570Z,100310.88
2022-10-12T16:47:53.917Z,100310.09
2022-10-12T16:50:23.558Z,100310.97
2022-10-12T16:52:51.474Z,100321.22
2022-10-12T16:55:19.515Z,100317.53
2022-10-12T16:57:46.987Z,100326.50
2022-10-12T17:00:19.043Z,100320.09
2022-10-12T17:02:47.836Z,100317.47
2022-10-12T17:05:15.269Z,100325.38
2022-10-12T17:07:42.213Z,100323.31
2022-10-12T17:10:09.732Z,100321.31
2022-10-12T17:12:36.784Z,100321.13
2022-10-12T17:15:04.737Z,100316.59
2022-10-12T17:17:31.699Z,100320.78
2022-10-12T17:19:58.701Z,100308.78
2022-10-12T17:22:25.632Z,100322.69
2022-10-12T17:24:52.880Z,100319.38
2022-10-12T17:27:20.015Z,100324.41
2022-10-12T17:29:47.047Z,100328.31
2022-10-12T17:32:14.442Z,100328.78
2022-10-12T17:34:45.752Z,100327.53
2022-10-12T17:37:13.546Z,100325.06
2022-10-12T17:39:44.790Z,100324.66
2022-10-12T17:42:12.386Z,100326.75
2022-10-12T17:44:39.504Z,100335.28
2022-10-12T17:47:06.684Z,100334.63
2022-10-12T17:49:33.657Z,100334.03
2022-10-12T17:52:00.673Z,100329.66
2022-10-12T17:54:27.730Z,100330.94
2022-10-12T17:56:56.331Z,100334.63
2022-10-12T17:59:24.356Z,100331.13
2022-10-12T18:01:55.197Z,100320.56
2022-10-12T18:04:22.952Z,100320.19
2022-10-12T18:06:49.972Z,100321.03
2022-10-12T18:09:17.146Z,100318.53
2022-10-12T18:11:44.561Z,100322.25
2022-10-12T18:14:13.256Z,100333.03
2022-10-12T18:16:41.357Z,100330.56
2022-10-12T18:19:10.244Z,100339.66
2022-10-12T18:21:38.484Z,100338.84
2022-10-12T18:24:15.986Z,100337.38
2022-10-12T18:26:47.781Z,100343.00
2022-10-12T18:29:17.726Z,100335.97
2022-10-12T18:31:44.735Z,100333.72
2022-10-12T18:34:11.849Z,100344.47
2022-10-12T18:36:40.780Z,100345.50
2022-10-12T18:39:07.871Z,100338.47
2022-10-12T18:41:34.894Z,100340.53
2022-10-12T18:44:03.536Z,100331.88
2022-10-12T18:46:33.673Z,100341.81
2022-10-12T18:49:05.008Z,100334.75
2022-10-12T18:51:34.922Z,100340.34
2022-10-12T18:54:03.198Z,100334.97
2022-10-12T18:56:32.874Z,100332.28
2022-10-12T18:59:00.860Z,100333.94
2022-10-12T19:01:30.164Z,100333.31
2022-10-12T19:03:59.858Z,100338.47
2022-10-12T19:06:31.609Z,100339.31
2022-10-12T19:08:59.748Z,100336.84
2022-10-12T19:11:29.662Z,100333.09
2022-10-12T19:14:04.715Z,100321.50
2022-10-12T19:16:32.430Z,100323.16
2022-10-12T19:19:05.518Z,100326.06
2022-10-12T19:21:34.204Z,100324.19
2022-10-12T19:24:07.467Z,100327.94
2022-10-12T19:26:35.428Z,100321.50
2022-10-12T19:29:02.824Z,100325.84
2022-10-12T19:31:35.836Z,100319.88
2022-10-12T19:34:07.977Z,100329.81
2022-10-12T19:36:36.575Z,100327.94
2022-10-12T19:39:08.388Z,100332.72
2022-10-12T19:41:36.096Z,100331.88
2022-10-12T19:44:03.784Z,100332.06
2022-10-12T19:46:31.487Z,100328.78
2022-10-12T19:49:03.430Z,100329.00
2022-10-12T19:51:32.463Z,100326.53
2022-10-12T19:54:01.754Z,100326.94
2022-10-12T19:56:29.387Z,100324.91
2022-10-12T19:58:57.554Z,100322.63
2022-10-12T20:01:32.256Z,100311.66
2022-10-12T20:03:59.843Z,100309.63
2022-10-12T20:06:29.411Z,100307.94
2022-10-12T20:08:59.759Z,100311.06
2022-10-12T20:11:26.851Z,100307.78
2022-10-12T20:13:54.888Z,100312.50
2022-10-12T20:16:22.460Z,100305.91
2022-10-12T20:18:50.740Z,100312.34
2022-10-12T20:21:22.417Z,100310.06
2022-10-12T20:23:50.733Z,100315.44
2022-10-12T20:26:25.790Z,100313.78
2022-10-12T20:28:54.101Z,100317.50
2022-10-12T20:31:27.282Z,100318.13
2022-10-12T20:33:55.946Z,100319.16
2022-10-12T20:36:31.153Z,100332.59
2022-10-12T20:38:59.102Z,100335.28
2022-10-12T20:41:27.559Z,100328.28
2022-10-12T20:43:59.935Z,100329.09
2022-10-12T20:46:28.505Z,100332.41
2022-10-12T20:48:59.381Z,100322.91
2022-10-12T20:51:34.111Z,100328.28
2022-10-12T20:54:01.611Z,100327.25
2022-10-12T20:56:31.026Z,100320.63
2022-10-12T20:58:59.045Z,100324.56
2022-10-12T21:01:26.442Z,100314.25
2022-10-12T21:03:54.023Z,100318.16
2022-10-12T21:06:23.375Z,100317.53
2022-10-12T21:08:54.146Z,100316.09
2022-10-12T21:11:22.105Z,100320.81
2022-10-12T21:13:49.635Z,100310.50
2022-10-12T21:16:17.312Z,100299.31
2022-10-12T21:18:44.358Z,100303.25
2022-10-12T21:21:17.532Z,100315.03
2022-10-12T21:23:57.486Z,100310.06
2022-10-12T21:26:28.379Z,100311.94
2022-10-12T21:28:55.422Z,100307.59
2022-10-12T21:31:22.520Z,100308.41
2022-10-12T21:33:49.603Z,100306.34
2022-10-12T21:36:23.319Z,100309.03
2022-10-12T21:38:51.108Z,100310.88
2022-10-12T21:41:24.241Z,100302.00
2022-10-12T21:43:52.808Z,100308.03
2022-10-12T21:46:25.239Z,100314.22
2022-10-12T21:48:52.919Z,100309.66
2022-10-12T21:51:22.142Z,100310.06
2022-10-12T21:53:50.095Z,100321.03
2022-10-12T21:56:22.483Z,100312.75
2022-10-12T21:58:51.601Z,100308.63
2022-10-12T22:01:25.734Z,100305.72
2022-10-12T22:04:00.963Z,100312.53
2022-10-12T22:06:29.813Z,100311.31
2022-10-12T22:09:03.402Z,100313.16
2022-10-12T22:11:32.749Z,100317.03
2022-10-12T22:14:06.979Z,100321.56
2022-10-12T22:16:35.158Z,100311.63
2022-10-12T22:19:06.564Z,100312.47
2022-10-12T22:21:34.845Z,100321.34
2022-10-12T22:24:02.477Z,100324.81
2022-10-12T22:26:30.115Z,100327.28
2022-10-12T22:28:59.832Z,100324.38
2022-10-12T22:31:27.219Z,100324.13
2022-10-12T22:33:55.589Z,100325.56
2022-10-12T22:36:22.605Z,100323.28
2022-10-12T22:38:49.624Z,100323.69
2022-10-12T22:41:21.976Z,100319.75
2022-10-12T22:43:51.861Z,100310.47
2022-10-12T22:46:20.704Z,100303.81
2022-10-12T22:48:48.699Z,100305.22
2022-10-12T22:51:21.040Z,100307.47
2022-10-12T22:53:48.552Z,100313.22
2022-10-12T22:56:19.774Z,100314.47
2022-10-12T22:58:48.824Z,100316.50
2022-10-12T23:01:17.483Z,100307.84
2022-10-12T23:03:45.434Z,100308.03
2022-10-12T23:06:16.437Z,100314.63
2022-10-12T23:08:44.361Z,100310.66
2022-10-12T23:11:19.041Z,100314.38
2022-10-12T23:13:47.022Z,100313.75
2022-10-12T23:16:31.309Z,100321.19
2022-10-12T23:19:04.682Z,100320.31
2022-10-12T23:21:34.154Z,100321.56
2022-10-12T23:24:01.965Z,100326.09
2022-10-12T23:26:29.496Z,100323.81
2022-10-12T23:28:57.018Z,100326.66
2022-10-12T23:31:28.455Z,100326.88
2022-10-12T23:34:02.712Z,100329.56
2022-10-12T23:36:30.239Z,100332.03
2022-10-12T23:39:00.809Z,100332.84
2022-10-12T23:41:27.848Z,100332.69
2022-10-12T23:43:54.949Z,100338.66
2022-10-12T23:46:21.998Z,100341.16
2022-10-12T23:48:49.023Z,100330.22
2022-10-12T23:51:15.990Z,100330.22
2022-10-12T23:53:43.037Z,100326.53
2022-10-12T23:56:10.403Z,100324.47
2022-10-12T23:58:37.441Z,100320.78
